createdAt,value
2024-01-25T00:02:17.028Z,3.64
2024-01-25T00:04:47.466Z,3.61
2024-01-25T00:07:17.934Z,3.60
2024-01-25T00:09:50.912Z,3.58
2024-01-25T00:12:21.302Z,3.54
2024-01-25T00:14:52.403Z,3.56
2024-01-25T00:17:22.841Z,3.54
2024-01-25T00:19:53.493Z,3.53
2024-01-25T00:22:24.001Z,3.53
2024-01-25T00:24:57.009Z,3.52
2024-01-25T00:27:27.505Z,3.52
2024-01-25T00:29:58.031Z,3.50
2024-01-25T00:32:28.674Z,3.47
2024-01-25T00:35:00.196Z,3.49
2024-01-25T00:37:31.727Z,3.47
2024-01-25T00:40:05.771Z,3.45
2024-01-25T00:42:40.873Z,3.46
2024-01-25T00:45:13.449Z,3.41
2024-01-25T00:47:45.093Z,3.42
2024-01-25T00:50:18.868Z,3.42
2024-01-25T00:52:50.343Z,3.38
2024-01-25T00:55:24.635Z,3.39
2024-01-25T00:57:56.340Z,3.39
2024-01-25T01:00:28.786Z,3.38
2024-01-25T01:03:04.403Z,3.38
2024-01-25T01:05:36.037Z,3.38
2024-01-25T01:08:08.013Z,3.37
2024-01-25T01:10:41.014Z,3.36
2024-01-25T01:13:11.434Z,3.37
2024-01-25T01:15:41.829Z,3.37
2024-01-25T01:18:12.462Z,3.38
2024-01-25T01:20:42.881Z,3.40
2024-01-25T01:23:13.208Z,3.47
2024-01-25T01:25:46.133Z,3.49
2024-01-25T01:28:16.750Z,3.55
2024-01-25T01:30:47.290Z,3.57
2024-01-25T01:33:18.089Z,3.60
2024-01-25T01:35:49.806Z,3.64
2024-01-25T01:38:20.593Z,3.71
2024-01-25T01:40:53.503Z,3.76
2024-01-25T01:43:24.689Z,3.81
2024-01-25T01:45:55.157Z,3.85
2024-01-25T01:48:25.688Z,3.88
2024-01-25T01:50:56.427Z,3.92
2024-01-25T01:53:26.851Z,3.94
2024-01-25T01:56:00.041Z,3.96
2024-01-25T01:58:32.081Z,3.97
2024-01-25T02:01:04.445Z,3.98
2024-01-25T02:03:35.137Z,3.99
2024-01-25T02:06:06.381Z,4.02
2024-01-25T02:08:37.200Z,4.04
2024-01-25T02:11:10.413Z,4.04
2024-01-25T02:13:40.722Z,4.04
2024-01-25T02:16:12.500Z,4.05
2024-01-25T02:18:43.998Z,4.07
2024-01-25T02:21:14.833Z,4.08
2024-01-25T02:23:47.816Z,4.09
2024-01-25T02:26:18.185Z,4.09
2024-01-25T02:28:48.524Z,4.12
2024-01-25T02:31:19.021Z,4.16
2024-01-25T02:33:49.630Z,4.22
2024-01-25T02:36:20.503Z,4.23
2024-01-25T02:38:53.418Z,4.26
2024-01-25T02:41:23.748Z,4.26
2024-01-25T02:43:54.104Z,4.27
2024-01-25T02:46:24.467Z,4.28
2024-01-25T02:48:55.146Z,4.29
2024-01-25T02:51:25.597Z,4.29
2024-01-25T02:53:58.545Z,4.28
2024-01-25T02:56:34.752Z,4.26
2024-01-25T02:59:05.250Z,4.27
2024-01-25T03:01:44.120Z,4.26
2024-01-25T03:04:14.792Z,4.30
2024-01-25T03:06:45.501Z,4.29
2024-01-25T03:09:18.570Z,4.33
2024-01-25T03:11:48.869Z,4.34
2024-01-25T03:14:19.414Z,4.30
2024-01-25T03:16:49.771Z,4.34
2024-01-25T03:19:20.264Z,4.37
2024-01-25T03:21:50.873Z,4.40
2024-01-25T03:24:23.919Z,4.42
2024-01-25T03:26:54.290Z,4.43
2024-01-25T03:29:24.830Z,4.48
2024-01-25T03:31:55.140Z,4.51
2024-01-25T03:34:25.625Z,4.57
2024-01-25T03:36:56.056Z,4.62
2024-01-25T03:39:29.359Z,4.65
2024-01-25T03:41:59.896Z,4.72
2024-01-25T03:44:30.393Z,4.76
2024-01-25T03:47:00.819Z,4.84
2024-01-25T03:49:31.841Z,4.88
2024-01-25T03:52:02.215Z,4.93
2024-01-25T03:54:35.412Z,4.96
2024-01-25T03:57:05.902Z,4.99
2024-01-25T03:59:36.297Z,5.03
2024-01-25T04:02:06.909Z,5.07
2024-01-25T04:04:37.520Z,5.09
2024-01-25T04:07:08.322Z,5.08
2024-01-25T04:09:41.536Z,5.12
2024-01-25T04:12:12.546Z,5.12
2024-01-25T04:14:42.870Z,5.19
2024-01-25T04:17:13.253Z,5.22
2024-01-25T04:19:43.702Z,5.23
2024-01-25T04:22:14.162Z,5.26
2024-01-25T04:24:50.017Z,5.29
2024-01-25T04:27:20.620Z,5.32
2024-01-25T04:29:51.055Z,5.35
2024-01-25T04:32:21.685Z,5.37
2024-01-25T04:34:52.156Z,5.39
2024-01-25T04:37:22.648Z,5.40
2024-01-25T04:39:55.703Z,5.43
2024-01-25T04:42:26.293Z,5.45
2024-01-25T04:44:56.723Z,5.49
2024-01-25T04:47:27.162Z,5.51
2024-01-25T04:49:57.633Z,5.53
2024-01-25T04:52:28.019Z,5.55
2024-01-25T04:55:01.065Z,5.58
2024-01-25T04:57:31.521Z,5.59
2024-01-25T05:00:01.881Z,5.60
2024-01-25T05:02:32.213Z,5.65
2024-01-25T05:05:02.687Z,5.73
2024-01-25T05:07:33.233Z,5.77
2024-01-25T05:10:06.493Z,5.81
2024-01-25T05:12:36.916Z,5.85
2024-01-25T05:15:08.367Z,5.89
2024-01-25T05:17:38.748Z,5.91
2024-01-25T05:20:11.781Z,5.95
2024-01-25T05:22:43.343Z,5.98
2024-01-25T05:25:16.627Z,6.05
2024-01-25T05:27:47.060Z,6.13
2024-01-25T05:30:19.033Z,6.19
2024-01-25T05:32:51.000Z,6.25
2024-01-25T05:35:22.156Z,6.30
2024-01-25T05:37:52.768Z,6.35
2024-01-25T05:40:25.742Z,6.36
2024-01-25T05:42:56.599Z,6.38
2024-01-25T05:45:27.644Z,6.39
2024-01-25T05:47:58.096Z,6.42
2024-01-25T05:50:28.586Z,6.45
2024-01-25T05:52:58.933Z,6.46
2024-01-25T05:55:32.253Z,6.50
2024-01-25T05:58:02.772Z,6.52
2024-01-25T06:00:33.273Z,6.51
2024-01-25T06:03:03.687Z,6.53
2024-01-25T06:05:34.251Z,6.53
2024-01-25T06:08:04.884Z,6.55
2024-01-25T06:10:37.918Z,6.54
2024-01-25T06:13:08.750Z,6.54
2024-01-25T06:15:40.107Z,6.57
2024-01-25T06:18:10.699Z,6.58
2024-01-25T06:20:41.295Z,6.58
2024-01-25T06:23:11.658Z,6.59
2024-01-25T06:25:44.582Z,6.60
2024-01-25T06:28:15.006Z,6.63
2024-01-25T06:30:45.453Z,6.61
2024-01-25T06:33:15.849Z,6.62
2024-01-25T06:35:46.394Z,6.63
2024-01-25T06:38:16.917Z,6.65
2024-01-25T06:40:49.885Z,6.66
2024-01-25T06:43:22.415Z,6.70
2024-01-25T06:45:52.886Z,6.72
2024-01-25T06:48:23.396Z,6.71
2024-01-25T06:50:53.980Z,6.74
2024-01-25T06:53:25.425Z,6.73
2024-01-25T06:55:58.452Z,6.77
2024-01-25T06:58:28.962Z,6.79
2024-01-25T07:01:00.528Z,6.85
2024-01-25T07:03:31.730Z,6.88
2024-01-25T07:06:03.514Z,6.89
2024-01-25T07:08:33.981Z,6.93
2024-01-25T07:11:07.205Z,6.95
2024-01-25T07:13:37.761Z,7.00
2024-01-25T07:16:09.495Z,7.04
2024-01-25T07:18:40.156Z,7.06
2024-01-25T07:21:10.598Z,7.10
2024-01-25T07:23:40.966Z,7.11
2024-01-25T07:26:13.861Z,7.14
2024-01-25T07:28:44.185Z,7.13
2024-01-25T07:31:14.629Z,7.15
2024-01-25T07:33:45.180Z,7.17
2024-01-25T07:36:17.709Z,7.21
2024-01-25T07:38:48.481Z,7.18
2024-01-25T07:41:21.517Z,7.19
2024-01-25T07:43:56.506Z,7.18
2024-01-25T07:46:28.227Z,7.17
2024-01-25T07:48:58.741Z,7.19
2024-01-25T07:51:30.305Z,7.19
2024-01-25T07:54:01.044Z,7.18
2024-01-25T07:56:33.998Z,7.19
2024-01-25T07:59:04.341Z,7.22
2024-01-25T08:01:35.100Z,7.23
2024-01-25T08:04:05.575Z,7.27
2024-01-25T08:06:36.194Z,7.23
2024-01-25T08:09:07.110Z,7.27
2024-01-25T08:11:40.102Z,7.25
2024-01-25T08:14:10.549Z,7.27
2024-01-25T08:16:41.140Z,7.28
2024-01-25T08:19:11.645Z,7.31
2024-01-25T08:21:42.303Z,7.28
2024-01-25T08:24:13.059Z,7.30
2024-01-25T08:26:46.092Z,7.31
2024-01-25T08:29:16.501Z,7.32
2024-01-25T08:31:47.582Z,7.33
2024-01-25T08:34:18.171Z,7.34
2024-01-25T08:36:48.725Z,7.35
2024-01-25T08:39:19.108Z,7.36
2024-01-25T08:41:52.157Z,7.37
2024-01-25T08:44:22.570Z,7.41
2024-01-25T08:46:52.915Z,7.40
2024-01-25T08:49:23.411Z,7.44
2024-01-25T08:51:53.936Z,7.44
2024-01-25T08:54:24.369Z,7.50
2024-01-25T08:56:57.360Z,7.50
2024-01-25T08:59:28.086Z,7.53
2024-01-25T09:01:58.627Z,7.56
2024-01-25T09:04:29.143Z,7.58
2024-01-25T09:06:59.631Z,7.58
2024-01-25T09:09:30.163Z,7.60
2024-01-25T09:12:03.109Z,7.62
2024-01-25T09:14:33.729Z,7.63
2024-01-25T09:17:04.085Z,7.67
2024-01-25T09:19:34.697Z,7.69
2024-01-25T09:22:06.113Z,7.70
2024-01-25T09:24:37.717Z,7.71
2024-01-25T09:27:10.828Z,7.70
2024-01-25T09:29:42.457Z,7.77
2024-01-25T09:32:13.703Z,7.81
2024-01-25T09:34:44.326Z,7.84
2024-01-25T09:37:16.283Z,7.87
2024-01-25T09:39:47.051Z,7.89
2024-01-25T09:42:20.210Z,7.93
2024-01-25T09:44:50.581Z,7.98
2024-01-25T09:47:23.014Z,7.97
2024-01-25T09:49:53.653Z,8.03
2024-01-25T09:52:29.039Z,8.05
2024-01-25T09:55:00.553Z,8.12
2024-01-25T09:57:36.008Z,8.19
2024-01-25T10:00:13.323Z,8.23
2024-01-25T10:02:43.832Z,8.27
2024-01-25T10:05:14.279Z,8.36
2024-01-25T10:07:46.389Z,8.37
2024-01-25T10:10:18.215Z,8.48
2024-01-25T10:12:51.221Z,8.53
2024-01-25T10:15:21.630Z,8.57
2024-01-25T10:18:07.092Z,8.64
2024-01-25T10:20:42.993Z,8.67
2024-01-25T10:23:14.147Z,8.68
2024-01-25T10:25:44.707Z,8.75
2024-01-25T10:28:18.054Z,8.78
2024-01-25T10:30:48.671Z,8.83
2024-01-25T10:33:21.005Z,8.86
2024-01-25T10:35:52.802Z,8.89
2024-01-25T10:38:23.295Z,8.96
2024-01-25T10:40:54.584Z,8.98
2024-01-25T10:43:27.771Z,9.01
2024-01-25T10:46:01.941Z,9.08
2024-01-25T10:48:35.705Z,9.16
2024-01-25T10:51:06.864Z,9.17
2024-01-25T10:53:38.572Z,9.20
2024-01-25T10:56:10.695Z,9.26
2024-01-25T10:58:45.811Z,9.31
2024-01-25T11:01:16.931Z,9.35
2024-01-25T11:03:50.504Z,9.41
2024-01-25T11:06:25.215Z,9.47
2024-01-25T11:08:55.672Z,9.53
2024-01-25T11:11:26.436Z,9.59
2024-01-25T11:14:00.499Z,9.63
2024-01-25T11:16:36.008Z,9.71
2024-01-25T11:19:09.582Z,9.74
2024-01-25T11:21:45.683Z,9.81
2024-01-25T11:24:20.045Z,9.86
2024-01-25T11:26:51.190Z,9.88
2024-01-25T11:29:25.882Z,9.95
2024-01-25T11:31:57.531Z,10.00
2024-01-25T11:34:27.940Z,10.02
2024-01-25T11:36:59.190Z,10.11
2024-01-25T11:39:29.464Z,10.08
2024-01-25T11:41:59.805Z,10.15
2024-01-25T11:44:32.677Z,10.12
2024-01-25T11:47:03.008Z,10.15
2024-01-25T11:49:33.438Z,10.15
2024-01-25T11:52:03.960Z,10.17
2024-01-25T11:54:34.334Z,10.20
2024-01-25T11:57:04.716Z,10.20
2024-01-25T11:59:38.155Z,10.27
2024-01-25T12:02:09.088Z,10.28
2024-01-25T12:04:40.161Z,10.32
2024-01-25T12:07:11.521Z,10.31
2024-01-25T12:09:41.883Z,10.34
2024-01-25T12:12:13.993Z,10.39
2024-01-25T12:14:48.027Z,10.40
2024-01-25T12:17:18.314Z,10.40
2024-01-25T12:19:48.735Z,10.40
2024-01-25T12:22:25.392Z,10.41
2024-01-25T12:25:00.730Z,10.34
2024-01-25T12:27:34.044Z,10.40
2024-01-25T12:30:08.172Z,10.36
2024-01-25T12:32:38.632Z,10.31
2024-01-25T12:35:10.799Z,10.33
2024-01-25T12:37:41.367Z,10.40
2024-01-25T12:40:13.110Z,10.42
2024-01-25T12:42:44.270Z,10.48
2024-01-25T12:45:20.537Z,10.50
2024-01-25T12:47:51.187Z,10.54
2024-01-25T12:50:21.582Z,10.57
2024-01-25T12:52:52.379Z,10.65
2024-01-25T12:55:23.165Z,10.67
2024-01-25T12:57:55.713Z,10.71
2024-01-25T13:00:29.106Z,10.76
2024-01-25T13:02:59.374Z,10.75
2024-01-25T13:05:30.050Z,10.71
2024-01-25T13:08:00.736Z,10.69
2024-01-25T13:10:31.014Z,10.70
2024-01-25T13:13:01.770Z,10.71
2024-01-25T13:15:34.670Z,10.71
2024-01-25T13:18:05.383Z,10.71
2024-01-25T13:20:35.668Z,10.71
2024-01-25T13:23:06.157Z,10.70
2024-01-25T13:25:36.382Z,10.68
2024-01-25T13:28:06.987Z,10.76
2024-01-25T13:30:39.881Z,10.72
2024-01-25T13:33:10.286Z,10.80
2024-01-25T13:35:40.593Z,10.82
2024-01-25T13:38:15.816Z,10.83
2024-01-25T13:40:46.325Z,10.85
2024-01-25T13:43:17.564Z,10.87
2024-01-25T13:45:50.645Z,10.87
2024-01-25T13:48:22.142Z,10.88
2024-01-25T13:50:52.479Z,10.91
2024-01-25T13:53:22.772Z,10.88
2024-01-25T13:55:53.031Z,10.91
2024-01-25T13:58:23.257Z,10.95
2024-01-25T14:00:56.233Z,10.98
2024-01-25T14:03:26.731Z,11.00
2024-01-25T14:05:58.593Z,10.98
2024-01-25T14:08:29.087Z,10.99
2024-01-25T14:10:59.564Z,11.01
2024-01-25T14:13:29.833Z,11.00
2024-01-25T14:16:03.101Z,11.01
2024-01-25T14:18:40.036Z,11.01
2024-01-25T14:21:11.309Z,11.02
2024-01-25T14:23:42.210Z,11.03
2024-01-25T14:26:12.542Z,11.04
2024-01-25T14:28:43.058Z,11.06
2024-01-25T14:31:15.996Z,11.09
2024-01-25T14:33:46.907Z,11.06
2024-01-25T14:36:18.078Z,11.08
2024-01-25T14:38:48.415Z,11.04
2024-01-25T14:41:18.864Z,11.07
2024-01-25T14:43:50.239Z,11.04
2024-01-25T14:46:23.054Z,11.03
2024-01-25T14:48:53.384Z,11.01
2024-01-25T14:51:23.875Z,11.00
2024-01-25T14:53:54.158Z,11.02
2024-01-25T14:56:24.420Z,11.02
2024-01-25T14:58:54.657Z,11.01
2024-01-25T15:01:30.352Z,11.03
2024-01-25T15:04:00.953Z,11.06
2024-01-25T15:06:31.412Z,11.00
2024-01-25T15:09:01.761Z,11.02
2024-01-25T15:11:32.036Z,11.01
2024-01-25T15:14:02.270Z,10.99
2024-01-25T15:16:35.724Z,10.99
2024-01-25T15:19:06.288Z,10.96
2024-01-25T15:21:36.829Z,10.99
2024-01-25T15:24:08.081Z,11.00
2024-01-25T15:26:38.558Z,10.96
2024-01-25T15:29:08.824Z,10.99
2024-01-25T15:31:41.819Z,11.01
2024-01-25T15:34:12.241Z,11.03
2024-01-25T15:36:45.119Z,11.04
2024-01-25T15:39:15.888Z,11.03
2024-01-25T15:41:50.623Z,11.05
2024-01-25T15:44:20.921Z,11.00
2024-01-25T15:46:53.983Z,11.04
2024-01-25T15:49:24.547Z,11.05
2024-01-25T15:51:54.900Z,11.07
2024-01-25T15:54:25.261Z,11.05
2024-01-25T15:56:55.844Z,11.05
2024-01-25T15:59:26.073Z,11.04
2024-01-25T16:01:58.971Z,11.07
2024-01-25T16:04:29.353Z,11.07
2024-01-25T16:06:59.720Z,11.06
2024-01-25T16:09:29.986Z,11.08
2024-01-25T16:12:00.377Z,11.09
2024-01-25T16:14:30.597Z,11.05
2024-01-25T16:17:03.497Z,11.12
2024-01-25T16:19:34.050Z,11.11
2024-01-25T16:22:04.455Z,11.07
2024-01-25T16:24:34.744Z,11.09
2024-01-25T16:27:05.488Z,11.08
2024-01-25T16:29:35.742Z,11.06
2024-01-25T16:32:10.088Z,11.05
2024-01-25T16:34:40.629Z,11.06
2024-01-25T16:37:10.934Z,11.03
2024-01-25T16:39:41.351Z,11.00
2024-01-25T16:42:11.696Z,10.99
2024-01-25T16:44:41.924Z,10.98
2024-01-25T16:47:15.531Z,10.95
2024-01-25T16:49:45.869Z,10.98
2024-01-25T16:52:16.144Z,10.98
2024-01-25T16:54:46.514Z,10.97
2024-01-25T16:57:16.990Z,10.92
2024-01-25T16:59:47.229Z,10.95
2024-01-25T17:02:20.042Z,10.96
2024-01-25T17:04:50.457Z,10.93
2024-01-25T17:07:20.853Z,10.90
2024-01-25T17:09:51.421Z,10.92
2024-01-25T17:12:23.096Z,10.90
2024-01-25T17:14:53.486Z,10.89
2024-01-25T17:17:27.907Z,10.89
2024-01-25T17:20:00.073Z,10.90
2024-01-25T17:22:31.492Z,10.87
2024-01-25T17:25:01.867Z,10.88
2024-01-25T17:27:32.247Z,10.92
2024-01-25T17:30:02.497Z,10.91
2024-01-25T17:32:35.430Z,10.88
2024-01-25T17:35:07.154Z,10.88
2024-01-25T17:37:37.499Z,10.87
2024-01-25T17:40:09.560Z,10.85
2024-01-25T17:42:39.881Z,10.87
2024-01-25T17:45:12.330Z,10.87
2024-01-25T17:47:45.280Z,10.84
2024-01-25T17:50:15.763Z,10.87
2024-01-25T17:52:46.075Z,10.88
2024-01-25T17:55:16.602Z,10.88
2024-01-25T17:57:46.994Z,10.85
2024-01-25T18:00:19.710Z,10.84
2024-01-25T18:02:52.679Z,10.87
2024-01-25T18:05:22.967Z,10.88
2024-01-25T18:07:53.373Z,10.88
2024-01-25T18:10:23.636Z,10.88
2024-01-25T18:12:53.989Z,10.90
2024-01-25T18:15:24.278Z,10.90
2024-01-25T18:17:57.117Z,10.91
2024-01-25T18:20:27.580Z,10.95
2024-01-25T18:22:57.870Z,10.92
2024-01-25T18:25:28.090Z,10.95
2024-01-25T18:28:00.874Z,10.87
2024-01-25T18:30:31.238Z,10.89
2024-01-25T18:33:04.343Z,10.90
2024-01-25T18:35:34.713Z,10.87
2024-01-25T18:38:04.961Z,10.85
2024-01-25T18:40:36.469Z,10.85
2024-01-25T18:43:07.452Z,10.88
2024-01-25T18:45:37.858Z,10.82
2024-01-25T18:48:12.465Z,10.76
2024-01-25T18:50:43.617Z,10.78
2024-01-25T18:53:13.913Z,10.82
2024-01-25T18:55:45.592Z,10.82
2024-01-25T18:58:16.963Z,10.83
2024-01-25T19:00:48.653Z,10.81
2024-01-25T19:03:22.668Z,10.82
2024-01-25T19:05:56.819Z,10.82
2024-01-25T19:08:28.870Z,10.84
2024-01-25T19:11:00.712Z,10.80
2024-01-25T19:13:31.271Z,10.82
2024-01-25T19:16:01.571Z,10.84
2024-01-25T19:18:34.547Z,10.86
2024-01-25T19:21:05.781Z,10.90
2024-01-25T19:23:36.836Z,10.90
2024-01-25T19:26:07.559Z,10.89
2024-01-25T19:28:39.714Z,10.92
2024-01-25T19:31:09.984Z,10.87
2024-01-25T19:33:43.168Z,10.88
2024-01-25T19:36:13.737Z,10.89
2024-01-25T19:38:44.787Z,10.86
2024-01-25T19:41:15.300Z,10.87
2024-01-25T19:43:45.578Z,10.83
2024-01-25T19:46:16.523Z,10.86
2024-01-25T19:48:50.275Z,10.90
2024-01-25T19:51:20.647Z,10.90
2024-01-25T19:53:51.014Z,10.94
2024-01-25T19:56:21.525Z,10.98
2024-01-25T19:58:54.688Z,10.96
2024-01-25T20:01:26.243Z,10.98
2024-01-25T20:04:00.613Z,11.01
2024-01-25T20:06:32.060Z,10.98
2024-01-25T20:09:02.403Z,11.04
2024-01-25T20:11:32.745Z,11.06
2024-01-25T20:14:03.175Z,11.04
2024-01-25T20:16:33.483Z,11.04
2024-01-25T20:19:06.672Z,11.04
2024-01-25T20:21:37.062Z,11.09
2024-01-25T20:24:08.011Z,11.06
2024-01-25T20:26:38.325Z,11.00
2024-01-25T20:29:08.676Z,11.01
2024-01-25T20:31:39.038Z,11.06
2024-01-25T20:34:12.069Z,11.04
2024-01-25T20:36:42.419Z,11.06
2024-01-25T20:39:12.817Z,11.07
2024-01-25T20:41:43.156Z,11.06
2024-01-25T20:44:13.515Z,11.07
2024-01-25T20:46:43.852Z,11.04
2024-01-25T20:49:16.915Z,11.08
2024-01-25T20:51:47.402Z,11.09
2024-01-25T20:54:17.854Z,11.08
2024-01-25T20:56:49.164Z,11.11
2024-01-25T20:59:20.386Z,11.11
2024-01-25T21:01:52.328Z,11.11
2024-01-25T21:04:26.869Z,11.09
2024-01-25T21:06:58.109Z,11.08
2024-01-25T21:09:29.562Z,11.12
2024-01-25T21:12:00.927Z,11.07
2024-01-25T21:14:33.281Z,11.05
2024-01-25T21:17:03.660Z,11.02
2024-01-25T21:19:36.812Z,10.97
2024-01-25T21:22:07.838Z,11.01
2024-01-25T21:24:38.233Z,10.99
2024-01-25T21:27:09.114Z,10.99
2024-01-25T21:29:39.721Z,10.97
2024-01-25T21:32:10.606Z,10.97
2024-01-25T21:34:43.866Z,10.96
2024-01-25T21:37:14.311Z,10.96
2024-01-25T21:39:44.704Z,10.99
2024-01-25T21:42:15.078Z,11.00
2024-01-25T21:44:47.050Z,11.03
2024-01-25T21:47:17.620Z,11.04
2024-01-25T21:49:51.282Z,11.06
2024-01-25T21:52:22.692Z,11.08
2024-01-25T21:54:53.386Z,11.07
2024-01-25T21:57:23.908Z,11.10
2024-01-25T21:59:54.595Z,11.10
2024-01-25T22:02:25.068Z,11.16
2024-01-25T22:04:58.056Z,11.19
2024-01-25T22:07:28.960Z,11.17
2024-01-25T22:09:59.416Z,11.19
2024-01-25T22:12:29.851Z,11.22
2024-01-25T22:15:00.256Z,11.22
2024-01-25T22:17:30.616Z,11.26
2024-01-25T22:20:03.761Z,11.25
2024-01-25T22:22:34.391Z,11.23
2024-01-25T22:25:05.039Z,11.29
2024-01-25T22:27:35.505Z,11.25
2024-01-25T22:30:06.028Z,11.25
2024-01-25T22:32:36.399Z,11.23
2024-01-25T22:35:10.107Z,11.26
2024-01-25T22:37:40.528Z,11.26
2024-01-25T22:40:13.245Z,11.23
2024-01-25T22:42:43.685Z,11.23
2024-01-25T22:45:14.314Z,11.25
2024-01-25T22:47:44.740Z,11.26
2024-01-25T22:50:18.005Z,11.20
2024-01-25T22:52:48.406Z,11.25
2024-01-25T22:55:19.057Z,11.24
2024-01-25T22:57:49.899Z,11.25
2024-01-25T23:00:25.151Z,11.25
2024-01-25T23:02:55.757Z,11.23
2024-01-25T23:05:28.943Z,11.25
2024-01-25T23:07:59.297Z,11.22
2024-01-25T23:10:29.682Z,11.27
2024-01-25T23:13:00.757Z,11.22
2024-01-25T23:15:31.278Z,11.24
2024-01-25T23:18:01.987Z,11.25
2024-01-25T23:20:36.362Z,11.21
2024-01-25T23:23:08.248Z,11.20
2024-01-25T23:25:38.636Z,11.25
2024-01-25T23:28:09.700Z,11.24
2024-01-25T23:30:40.171Z,11.24
2024-01-25T23:33:11.203Z,11.23
2024-01-25T23:35:45.139Z,11.20
2024-01-25T23:38:15.560Z,11.21
2024-01-25T23:40:46.871Z,11.20
2024-01-25T23:43:17.345Z,11.19
2024-01-25T23:45:48.031Z,11.21
2024-01-25T23:48:19.173Z,11.22
2024-01-25T23:50:52.670Z,11.24
2024-01-25T23:53:23.038Z,11.22
2024-01-25T23:55:53.573Z,11.25
2024-01-25T23:58:24.180Z,11.18
